Gil Vicente — CSKG — position and weather

sailwx.info

Track history (hours):
 
Tides and Currents Weather Stations Pressure Air Temp Water Temp Dewpoint Dewpoint Depression Visibility Wind Speed Wind Dir Waves Ship Positions

Gil Vicente

Last reported at 2016-Jun-29 20:33 UTC. Time now 2016-Jun-29 23:48 UTC.
Position N 38°39' W 009°05'.

Length 49 m.

Type: Passenger vessel. MMSI: 263701390.

Date/timePositionNaut miles runAvg speedWind from/ knotsBaromVisibWave heightAir tempDewpointWater temp
2016-Jun-29 20:33N 38°39' W 009°05'0 0.0
2016-Jun-29 19:33N 38°39' W 009°05'3 3.4
2016-Jun-29 18:33N 38°42' W 009°08'1 1.5
2016-Jun-29 17:33N 38°40' W 009°07'2 2.4
2016-Jun-29 16:33N 38°39' W 009°05'0 0.0
2016-Jun-29 15:33N 38°39' W 009°05'0 0.1
2016-Jun-29 14:32N 38°39' W 009°05'0 0.0
2016-Jun-29 09:31N 38°39' W 009°05'1 0.9
2016-Jun-29 08:33N 38°39' W 009°06'3 3.0
2016-Jun-29 07:33N 38°42' W 009°08'0 0.3
2016-Jun-29 06:33N 38°42' W 009°08'0 0.0
2016-Jun-28 19:33N 38°42' W 009°08'0 0.3
2016-Jun-28 18:33N 38°42' W 009°08'1 0.8
2016-Jun-28 17:33N 38°42' W 009°08'3 0.4
2016-Jun-28 09:21N 38°39' W 009°05'1 1.8
2016-Jun-28 08:33N 38°40' W 009°06'0 0.2
2016-Jun-28 07:33N 38°40' W 009°07'2 1.7
2016-Jun-28 06:33N 38°39' W 009°05'0 0.0
2016-Jun-28 04:33N 38°39' W 009°05'4 0.6
2016-Jun-27 22:33N 38°42' W 009°08'1 1.1
2016-Jun-27 21:33N 38°41' W 009°08'0 0.0
2016-Jun-27 20:33N 38°41' W 009°08'3 3.0
2016-Jun-27 19:33N 38°39' W 009°05'0 0.2
2016-Jun-27 18:33N 38°39' W 009°05'0 0.2
2016-Jun-27 17:33N 38°39' W 009°05'1 1.5
2016-Jun-27 16:32N 38°40' W 009°06'1 1.4
2016-Jun-27 15:33N 38°39' W 009°05'0 0.0
2016-Jun-27 12:03N 38°39' W 009°05'0 0.0
2016-Jun-27 11:32N 38°39' W 009°05'0 0.0
2016-Jun-27 10:33N 38°39' W 009°05'0 0.0
2016-Jun-27 09:33N 38°39' W 009°05'0 0.0
2016-Jun-27 08:33N 38°39' W 009°05'0 0.1
2016-Jun-27 07:33N 38°39' W 009°05'0 0.1
2016-Jun-27 06:33N 38°39' W 009°05'0 0.0
2016-Jun-27 05:33N 38°39' W 009°05'3 0.1
2016-Jun-25 20:34N 38°41' W 009°08'3 2.9
2016-Jun-25 19:33N 38°39' W 009°05'2 2.0
2016-Jun-25 18:34N 38°40' W 009°07'0 0.4
2016-Jun-25 17:34N 38°40' W 009°06'0 0.0
2016-Jun-25 16:33N 38°40' W 009°07'0 0.1
2016-Jun-25 15:33N 38°40' W 009°06'0 0.0
2016-Jun-25 14:34N 38°40' W 009°07'1 0.5
2016-Jun-25 13:32N 38°40' W 009°06'0 0.0
2016-Jun-25 12:33N 38°40' W 009°06'1 1.0
2016-Jun-25 11:34N 38°39' W 009°05'0 0.0
2016-Jun-25 10:33N 38°39' W 009°05'3 3.0
2016-Jun-25 09:33N 38°41' W 009°08'0 0.3
2016-Jun-25 08:34N 38°41' W 009°08'0 0.1
2016-Jun-25 07:34N 38°41' W 009°08'3 2.8
2016-Jun-25 06:34N 38°39' W 009°05'0 0.4
2016-Jun-25 05:33N 38°39' W 009°05'0 0.3
2016-Jun-25 04:33N 38°39' W 009°05'4 0.6
2016-Jun-24 22:33N 38°42' W 009°08'1 1.4
2016-Jun-24 21:33N 38°41' W 009°08'1 0.6
2016-Jun-24 20:33N 38°41' W 009°08'3 3.2
2016-Jun-24 19:33N 38°39' W 009°05'0 0.4
2016-Jun-24 18:33N 38°39' W 009°05'0 0.4
2016-Jun-24 17:33N 38°39' W 009°05'1 0.9
2016-Jun-24 16:33N 38°39' W 009°06'1 0.8
2016-Jun-24 15:33N 38°39' W 009°05'0 0.0
2016-Jun-24 08:33N 38°39' W 009°05'0 0.2
2016-Jun-24 07:33N 38°39' W 009°05'0 0.0
2016-Jun-23 20:27N 38°39' W 009°05'0 0.3
2016-Jun-23 19:33N 38°39' W 009°05'3 3.1
2016-Jun-23 18:33N 38°41' W 009°08'1 1.2
2016-Jun-23 17:33N 38°40' W 009°07'2 2.1
2016-Jun-23 16:33N 38°39' W 009°05'0 0.1
2016-Jun-23 15:33N 38°39' W 009°05'0 0.0
2016-Jun-23 10:30N 38°39' W 009°05'1 1.1
2016-Jun-23 09:32N 38°40' W 009°06'0 0.0
2016-Jun-23 08:32N 38°40' W 009°06'3 2.8
2016-Jun-23 07:33N 38°42' W 009°08'4 0.3
2016-Jun-22 20:33N 38°39' W 009°05'0 0.0
2016-Jun-22 19:33N 38°39' W 009°05'4 3.5
2016-Jun-22 18:33N 38°42' W 009°08'2 1.5
2016-Jun-22 17:33N 38°40' W 009°07'2 2.3
2016-Jun-22 16:33N 38°39' W 009°05'0 0.1
2016-Jun-22 15:33N 38°39' W 009°05'0 0.0
2016-Jun-22 14:33N 38°39' W 009°05'0 0.1
2016-Jun-22 12:07N 38°39' W 009°05'0 0.0
2016-Jun-22 11:33N 38°39' W 009°05'0 0.0
2016-Jun-22 10:33N 38°39' W 009°05'1 1.0
2016-Jun-22 09:33N 38°40' W 009°06'0 0.2
2016-Jun-22 08:33N 38°40' W 009°06'3 2.7
2016-Jun-22 07:33N 38°42' W 009°08'0 0.4
2016-Jun-22 06:33N 38°42' W 009°08'0 0.0
2016-Jun-21 19:33N 38°42' W 009°08'0 0.3
2016-Jun-21 18:33N 38°42' W 009°08'1 1.0
2016-Jun-21 17:33N 38°41' W 009°08'3 2.8
2016-Jun-21 16:33N 38°39' W 009°05'4 3.8
2016-Jun-21 15:33N 38°42' W 009°08'2 1.7
2016-Jun-21 14:33N 38°41' W 009°08'0 0.1
2016-Jun-21 13:33N 38°41' W 009°08'0 0.1
2016-Jun-21 12:33N 38°41' W 009°08'0 0.3
2016-Jun-21 11:32N 38°41' W 009°08'0 0.0
2016-Jun-21 10:33N 38°41' W 009°08'3 2.9
2016-Jun-21 09:33N 38°39' W 009°05'4 4.0
2016-Jun-21 08:33N 38°42' W 009°08'0 0.0
2016-Jun-21 07:33N 38°42' W 009°08'4 2.0
2016-Jun-21 05:33N 38°39' W 009°05'4 0.4
2016-Jun-20 18:33N 38°42' W 009°08'0 0.2
2016-Jun-20 17:33N 38°42' W 009°08'2 2.5
2016-Jun-20 16:33N 38°40' W 009°07'2 1.6
2016-Jun-20 15:33N 38°39' W 009°05'1 0.9
2016-Jun-20 14:33N 38°40' W 009°06'1 0.3
2016-Jun-20 10:32N 38°39' W 009°05'1 1.1
2016-Jun-20 09:33N 38°40' W 009°06'0 0.4
2016-Jun-20 08:33N 38°40' W 009°06'0 0.1
2016-Jun-20 07:33N 38°40' W 009°06'1 1.5
2016-Jun-20 06:33N 38°39' W 009°05'0 0.0
2016-Jun-20 05:33N 38°39' W 009°05'0 0.0
2016-Jun-20 04:33N 38°39' W 009°05'  
Track history (hours):
 
Tides and Currents Weather Stations Pressure Air Temp Water Temp Dewpoint Dewpoint Depression Visibility Wind Speed Wind Dir Waves Ship Positions

Gil Vicente

Last reported at 2016-Jun-29 20:33 UTC. Time now 2016-Jun-29 23:48 UTC.
Position N 38°39' W 009°05'.

Length 49 m.

Type: Passenger vessel. MMSI: 263701390.

Date/timePositionNaut miles runAvg speedWind from/ knotsBaromVisibWave heightAir tempDewpointWater temp
2016-Jun-29 20:33N 38°39' W 009°05'0 0.0
2016-Jun-29 19:33N 38°39' W 009°05'3 3.4
2016-Jun-29 18:33N 38°42' W 009°08'1 1.5
2016-Jun-29 17:33N 38°40' W 009°07'2 2.4
2016-Jun-29 16:33N 38°39' W 009°05'0 0.0
2016-Jun-29 15:33N 38°39' W 009°05'0 0.1
2016-Jun-29 14:32N 38°39' W 009°05'0 0.0
2016-Jun-29 09:31N 38°39' W 009°05'1 0.9
2016-Jun-29 08:33N 38°39' W 009°06'3 3.0
2016-Jun-29 07:33N 38°42' W 009°08'0 0.3
2016-Jun-29 06:33N 38°42' W 009°08'0 0.0
2016-Jun-28 19:33N 38°42' W 009°08'0 0.3
2016-Jun-28 18:33N 38°42' W 009°08'1 0.8
2016-Jun-28 17:33N 38°42' W 009°08'3 0.4
2016-Jun-28 09:21N 38°39' W 009°05'1 1.8
2016-Jun-28 08:33N 38°40' W 009°06'0 0.2
2016-Jun-28 07:33N 38°40' W 009°07'2 1.7
2016-Jun-28 06:33N 38°39' W 009°05'0 0.0
2016-Jun-28 04:33N 38°39' W 009°05'4 0.6
2016-Jun-27 22:33N 38°42' W 009°08'1 1.1
2016-Jun-27 21:33N 38°41' W 009°08'0 0.0
2016-Jun-27 20:33N 38°41' W 009°08'3 3.0
2016-Jun-27 19:33N 38°39' W 009°05'0 0.2
2016-Jun-27 18:33N 38°39' W 009°05'0 0.2
2016-Jun-27 17:33N 38°39' W 009°05'1 1.5
2016-Jun-27 16:32N 38°40' W 009°06'1 1.4
2016-Jun-27 15:33N 38°39' W 009°05'0 0.0
2016-Jun-27 12:03N 38°39' W 009°05'0 0.0
2016-Jun-27 11:32N 38°39' W 009°05'0 0.0
2016-Jun-27 10:33N 38°39' W 009°05'0 0.0
2016-Jun-27 09:33N 38°39' W 009°05'0 0.0
2016-Jun-27 08:33N 38°39' W 009°05'0 0.1
2016-Jun-27 07:33N 38°39' W 009°05'0 0.1
2016-Jun-27 06:33N 38°39' W 009°05'0 0.0
2016-Jun-27 05:33N 38°39' W 009°05'3 0.1
2016-Jun-25 20:34N 38°41' W 009°08'3 2.9
2016-Jun-25 19:33N 38°39' W 009°05'2 2.0
2016-Jun-25 18:34N 38°40' W 009°07'0 0.4
2016-Jun-25 17:34N 38°40' W 009°06'0 0.0
2016-Jun-25 16:33N 38°40' W 009°07'0 0.1
2016-Jun-25 15:33N 38°40' W 009°06'0 0.0
2016-Jun-25 14:34N 38°40' W 009°07'1 0.5
2016-Jun-25 13:32N 38°40' W 009°06'0 0.0
2016-Jun-25 12:33N 38°40' W 009°06'1 1.0
2016-Jun-25 11:34N 38°39' W 009°05'0 0.0
2016-Jun-25 10:33N 38°39' W 009°05'3 3.0
2016-Jun-25 09:33N 38°41' W 009°08'0 0.3
2016-Jun-25 08:34N 38°41' W 009°08'0 0.1
2016-Jun-25 07:34N 38°41' W 009°08'3 2.8
2016-Jun-25 06:34N 38°39' W 009°05'0 0.4
2016-Jun-25 05:33N 38°39' W 009°05'0 0.3
2016-Jun-25 04:33N 38°39' W 009°05'4 0.6
2016-Jun-24 22:33N 38°42' W 009°08'1 1.4
2016-Jun-24 21:33N 38°41' W 009°08'1 0.6
2016-Jun-24 20:33N 38°41' W 009°08'3 3.2
2016-Jun-24 19:33N 38°39' W 009°05'0 0.4
2016-Jun-24 18:33N 38°39' W 009°05'0 0.4
2016-Jun-24 17:33N 38°39' W 009°05'1 0.9
2016-Jun-24 16:33N 38°39' W 009°06'1 0.8
2016-Jun-24 15:33N 38°39' W 009°05'0 0.0
2016-Jun-24 08:33N 38°39' W 009°05'0 0.2
2016-Jun-24 07:33N 38°39' W 009°05'0 0.0
2016-Jun-23 20:27N 38°39' W 009°05'0 0.3
2016-Jun-23 19:33N 38°39' W 009°05'3 3.1
2016-Jun-23 18:33N 38°41' W 009°08'1 1.2
2016-Jun-23 17:33N 38°40' W 009°07'2 2.1
2016-Jun-23 16:33N 38°39' W 009°05'0 0.1
2016-Jun-23 15:33N 38°39' W 009°05'0 0.0
2016-Jun-23 10:30N 38°39' W 009°05'1 1.1
2016-Jun-23 09:32N 38°40' W 009°06'0 0.0
2016-Jun-23 08:32N 38°40' W 009°06'3 2.8
2016-Jun-23 07:33N 38°42' W 009°08'4 0.3
2016-Jun-22 20:33N 38°39' W 009°05'0 0.0
2016-Jun-22 19:33N 38°39' W 009°05'4 3.5
2016-Jun-22 18:33N 38°42' W 009°08'2 1.5
2016-Jun-22 17:33N 38°40' W 009°07'2 2.3
2016-Jun-22 16:33N 38°39' W 009°05'0 0.1
2016-Jun-22 15:33N 38°39' W 009°05'0 0.0
2016-Jun-22 14:33N 38°39' W 009°05'0 0.1
2016-Jun-22 12:07N 38°39' W 009°05'0 0.0
2016-Jun-22 11:33N 38°39' W 009°05'0 0.0
2016-Jun-22 10:33N 38°39' W 009°05'1 1.0
2016-Jun-22 09:33N 38°40' W 009°06'0 0.2
2016-Jun-22 08:33N 38°40' W 009°06'3 2.7
2016-Jun-22 07:33N 38°42' W 009°08'0 0.4
2016-Jun-22 06:33N 38°42' W 009°08'0 0.0
2016-Jun-21 19:33N 38°42' W 009°08'0 0.3
2016-Jun-21 18:33N 38°42' W 009°08'1 1.0
2016-Jun-21 17:33N 38°41' W 009°08'3 2.8
2016-Jun-21 16:33N 38°39' W 009°05'4 3.8
2016-Jun-21 15:33N 38°42' W 009°08'2 1.7
2016-Jun-21 14:33N 38°41' W 009°08'0 0.1
2016-Jun-21 13:33N 38°41' W 009°08'0 0.1
2016-Jun-21 12:33N 38°41' W 009°08'0 0.3
2016-Jun-21 11:32N 38°41' W 009°08'0 0.0
2016-Jun-21 10:33N 38°41' W 009°08'3 2.9
2016-Jun-21 09:33N 38°39' W 009°05'4 4.0
2016-Jun-21 08:33N 38°42' W 009°08'0 0.0
2016-Jun-21 07:33N 38°42' W 009°08'4 2.0
2016-Jun-21 05:33N 38°39' W 009°05'4 0.4
2016-Jun-20 18:33N 38°42' W 009°08'0 0.2
2016-Jun-20 17:33N 38°42' W 009°08'2 2.5
2016-Jun-20 16:33N 38°40' W 009°07'2 1.6
2016-Jun-20 15:33N 38°39' W 009°05'1 0.9
2016-Jun-20 14:33N 38°40' W 009°06'1 0.3
2016-Jun-20 10:32N 38°39' W 009°05'1 1.1
2016-Jun-20 09:33N 38°40' W 009°06'0 0.4
2016-Jun-20 08:33N 38°40' W 009°06'0 0.1
2016-Jun-20 07:33N 38°40' W 009°06'1 1.5
2016-Jun-20 06:33N 38°39' W 009°05'0 0.0
2016-Jun-20 05:33N 38°39' W 009°05'0 0.0
2016-Jun-20 04:33N 38°39' W 009°05'  

Dump ship's entire track history